createdAt,value
2017-12-13T00:00:45.975Z,3.60
2017-12-13T00:03:13.674Z,2.53
2017-12-13T00:05:42.174Z,3.70
2017-12-13T00:08:09.721Z,4.23
2017-12-13T00:10:37.217Z,2.30
2017-12-13T00:13:04.717Z,2.60
2017-12-13T00:15:32.244Z,3.70
2017-12-13T00:18:00.517Z,2.60
2017-12-13T00:20:28.839Z,3.90
2017-12-13T00:22:58.307Z,2.90
2017-12-13T00:25:26.573Z,3.63
2017-12-13T00:27:55.002Z,4.03
2017-12-13T00:30:22.561Z,3.70
2017-12-13T00:32:51.044Z,4.13
2017-12-13T00:35:18.693Z,4.93
2017-12-13T00:37:46.197Z,4.13
2017-12-13T00:40:14.530Z,3.60
2017-12-13T00:42:42.021Z,4.40
2017-12-13T00:45:09.541Z,6.93
2017-12-13T00:47:37.065Z,2.77
2017-12-13T00:50:05.394Z,4.43
2017-12-13T00:52:32.918Z,3.40
2017-12-13T00:55:00.433Z,3.10
2017-12-13T00:57:28.700Z,4.10
2017-12-13T00:59:56.203Z,2.80
2017-12-13T01:02:23.714Z,2.83
2017-12-13T01:04:51.214Z,3.03
2017-12-13T01:07:18.728Z,4.83
2017-12-13T01:09:46.233Z,2.50
2017-12-13T01:12:13.749Z,6.57
2017-12-13T01:14:42.012Z,2.23
2017-12-13T01:17:09.510Z,2.90
2017-12-13T01:19:39.747Z,2.30
2017-12-13T01:22:07.246Z,2.00
2017-12-13T01:24:35.512Z,3.03
2017-12-13T01:27:03.036Z,2.57
2017-12-13T01:29:30.563Z,2.53
2017-12-13T01:31:58.896Z,3.27
2017-12-13T01:34:26.441Z,4.30
2017-12-13T01:36:53.945Z,2.30
2017-12-13T01:39:21.458Z,7.67
2017-12-13T01:41:48.961Z,1.90
2017-12-13T01:44:18.202Z,2.33
2017-12-13T01:46:45.709Z,5.17
2017-12-13T01:49:15.662Z,8.83
2017-12-13T01:51:43.190Z,2.67
2017-12-13T01:54:10.683Z,3.20
2017-12-13T01:56:38.168Z,2.37
2017-12-13T01:59:05.689Z,3.00
2017-12-13T02:01:33.201Z,2.57
2017-12-13T02:04:00.697Z,4.57
2017-12-13T02:06:28.540Z,2.90
2017-12-13T02:08:56.792Z,2.80
2017-12-13T02:11:24.305Z,5.67
2017-12-13T02:13:51.827Z,2.73
2017-12-13T02:16:20.113Z,2.80
2017-12-13T02:18:48.375Z,2.63
2017-12-13T02:21:15.873Z,2.03
2017-12-13T02:23:43.417Z,3.90
2017-12-13T02:26:10.905Z,3.83
2017-12-13T02:28:38.392Z,2.67
2017-12-13T02:31:07.842Z,3.00
2017-12-13T02:33:35.366Z,3.77
2017-12-13T02:36:02.881Z,3.50
2017-12-13T02:38:30.397Z,2.50
2017-12-13T02:41:02.705Z,2.70
2017-12-13T02:43:30.222Z,3.33
2017-12-13T02:45:58.485Z,2.87
2017-12-13T02:48:26.765Z,4.70
2017-12-13T02:50:55.022Z,2.20
2017-12-13T02:53:24.969Z,6.77
2017-12-13T02:55:52.485Z,2.30
2017-12-13T02:58:19.978Z,2.93
2017-12-13T03:00:48.236Z,2.23
2017-12-13T03:03:16.516Z,5.10
2017-12-13T03:05:44.780Z,3.10
2017-12-13T03:08:12.274Z,2.80
2017-12-13T03:10:39.787Z,2.10
2017-12-13T03:13:08.041Z,2.77
2017-12-13T03:15:35.540Z,2.30
2017-12-13T03:18:03.817Z,4.37
2017-12-13T03:20:32.077Z,2.40
2017-12-13T03:23:00.332Z,2.60
2017-12-13T03:25:27.845Z,3.97
2017-12-13T03:27:55.333Z,4.10
2017-12-13T03:30:22.829Z,2.70
2017-12-13T03:32:51.113Z,2.73
2017-12-13T03:35:19.370Z,2.57
2017-12-13T03:37:46.857Z,2.60
2017-12-13T03:40:14.381Z,3.53
2017-12-13T03:42:41.902Z,2.30
2017-12-13T03:45:09.397Z,2.77
2017-12-13T03:47:36.911Z,2.43
2017-12-13T03:50:04.401Z,1.97
2017-12-13T03:52:32.661Z,3.40
2017-12-13T03:55:00.178Z,2.47
2017-12-13T03:57:27.673Z,6.13
2017-12-13T03:59:55.190Z,2.27
2017-12-13T04:02:22.684Z,2.70
2017-12-13T04:04:50.173Z,2.30
2017-12-13T04:07:18.457Z,2.67
2017-12-13T04:09:46.724Z,2.30
2017-12-13T04:12:15.006Z,4.00
2017-12-13T04:14:43.261Z,2.80
2017-12-13T04:17:12.284Z,2.90
2017-12-13T04:19:40.721Z,2.53
2017-12-13T04:22:08.213Z,2.93
2017-12-13T04:24:38.454Z,2.93
2017-12-13T04:27:05.940Z,2.93
2017-12-13T04:29:33.459Z,2.53
2017-12-13T04:32:00.966Z,2.60
2017-12-13T04:34:28.492Z,2.67
2017-12-13T04:36:55.980Z,2.50
2017-12-13T04:39:23.478Z,2.10
2017-12-13T04:41:51.762Z,2.33
2017-12-13T04:44:19.249Z,2.80
2017-12-13T04:46:46.762Z,2.20
2017-12-13T04:49:15.022Z,2.10
2017-12-13T04:51:42.533Z,2.00
2017-12-13T04:54:10.024Z,3.13
2017-12-13T04:56:37.517Z,2.27
2017-12-13T04:59:05.033Z,2.83
2017-12-13T05:01:32.525Z,2.67
2017-12-13T05:04:00.043Z,2.90
2017-12-13T05:06:29.263Z,3.10
2017-12-13T05:08:57.530Z,2.43
2017-12-13T05:11:25.812Z,2.33
2017-12-13T05:13:54.085Z,1.90
2017-12-13T05:16:22.382Z,2.77
2017-12-13T05:18:49.898Z,2.10
2017-12-13T05:21:17.398Z,2.07
2017-12-13T05:23:44.908Z,1.70
2017-12-13T05:26:12.405Z,2.70
2017-12-13T05:28:40.697Z,2.10
2017-12-13T05:31:08.205Z,2.60
2017-12-13T05:33:36.633Z,2.53
2017-12-13T05:36:04.143Z,2.90
2017-12-13T05:38:33.159Z,3.90
2017-12-13T05:41:01.444Z,2.33
2017-12-13T05:43:28.938Z,2.03
2017-12-13T05:45:56.427Z,3.03
2017-12-13T05:48:23.942Z,3.43
2017-12-13T05:50:51.428Z,2.97
2017-12-13T05:53:18.942Z,2.53
2017-12-13T05:55:47.393Z,2.27
2017-12-13T05:58:15.649Z,2.60
2017-12-13T06:00:43.165Z,2.20
2017-12-13T06:03:10.661Z,2.47
2017-12-13T06:05:38.942Z,3.33
2017-12-13T06:08:07.941Z,2.40
2017-12-13T06:10:36.233Z,4.13
2017-12-13T06:13:04.490Z,2.53
2017-12-13T06:15:32.773Z,2.40
2017-12-13T06:18:01.035Z,3.83
2017-12-13T06:20:28.525Z,3.07
2017-12-13T06:22:56.034Z,4.07
2017-12-13T06:25:23.539Z,2.53
2017-12-13T06:27:51.049Z,2.53
2017-12-13T06:30:18.537Z,2.77
2017-12-13T06:32:46.836Z,3.70
2017-12-13T06:35:14.346Z,4.80
2017-12-13T06:37:41.956Z,5.37
2017-12-13T06:40:10.393Z,3.23
2017-12-13T06:42:38.729Z,2.73
2017-12-13T06:45:06.576Z,2.83
2017-12-13T06:47:34.440Z,2.40
2017-12-13T06:50:02.512Z,2.57
2017-12-13T06:52:31.258Z,2.30
2017-12-13T06:54:58.909Z,2.53
2017-12-13T06:57:27.299Z,2.13
2017-12-13T06:59:56.742Z,2.33
2017-12-13T07:02:24.910Z,3.13
2017-12-13T07:04:52.775Z,2.53
2017-12-13T07:07:20.453Z,2.30
2017-12-13T07:09:48.114Z,2.37
2017-12-13T07:12:16.229Z,3.50
2017-12-13T07:14:43.975Z,2.30
2017-12-13T07:17:12.613Z,3.03
2017-12-13T07:19:40.653Z,6.07
2017-12-13T07:22:08.651Z,3.03
2017-12-13T07:24:36.316Z,3.03
2017-12-13T07:27:05.407Z,2.20
2017-12-13T07:29:34.397Z,3.63
2017-12-13T07:32:02.263Z,4.33
2017-12-13T07:34:30.230Z,20.67
2017-12-13T07:36:57.993Z,493.13
2017-12-13T07:39:25.858Z,308.20
2017-12-13T07:41:53.628Z,517.03
2017-12-13T07:44:21.591Z,217.63
2017-12-13T07:46:49.566Z,292.23
2017-12-13T07:49:17.525Z,250.47
2017-12-13T07:51:46.338Z,206.07
2017-12-13T07:54:13.877Z,217.13
2017-12-13T07:56:42.656Z,174.33
2017-12-13T07:59:11.546Z,154.87
2017-12-13T08:01:39.308Z,150.13
2017-12-13T08:04:06.842Z,129.40
2017-12-13T08:06:34.732Z,135.80
2017-12-13T08:09:02.597Z,131.40
2017-12-13T08:11:31.198Z,107.30
2017-12-13T08:13:58.799Z,130.97
2017-12-13T08:16:26.261Z,96.40
2017-12-13T08:18:54.553Z,87.17
2017-12-13T08:21:23.021Z,84.13
2017-12-13T08:23:51.286Z,99.93
2017-12-13T08:26:21.558Z,74.40
2017-12-13T08:28:49.062Z,97.10
2017-12-13T08:31:16.576Z,69.77
2017-12-13T08:33:44.077Z,77.70
2017-12-13T08:36:12.365Z,69.50
2017-12-13T08:38:41.627Z,66.30
2017-12-13T08:41:09.148Z,55.33
2017-12-13T08:43:38.604Z,69.73
2017-12-13T08:46:06.098Z,66.80
2017-12-13T08:48:33.625Z,52.50
2017-12-13T08:51:01.886Z,56.17
2017-12-13T08:53:29.386Z,63.67
2017-12-13T08:55:56.908Z,46.97
2017-12-13T08:58:24.445Z,45.63
2017-12-13T09:00:51.950Z,42.33
2017-12-13T09:03:19.468Z,47.33
2017-12-13T09:05:46.964Z,33.07
2017-12-13T09:08:14.484Z,41.17
2017-12-13T09:10:41.981Z,38.27
2017-12-13T09:13:09.495Z,39.83
2017-12-13T09:15:36.989Z,37.97
2017-12-13T09:18:04.498Z,33.03
2017-12-13T09:20:32.020Z,31.37
2017-12-13T09:22:59.517Z,29.27
2017-12-13T09:25:27.044Z,27.13
2017-12-13T09:27:54.541Z,26.30
2017-12-13T09:30:22.059Z,28.07
2017-12-13T09:32:49.562Z,35.40
2017-12-13T09:35:17.850Z,28.33
2017-12-13T09:37:45.370Z,32.00
2017-12-13T09:40:12.895Z,27.23
2017-12-13T09:42:40.389Z,19.70
2017-12-13T09:45:07.901Z,25.40
2017-12-13T09:47:36.359Z,32.47
2017-12-13T09:50:04.618Z,15.90
2017-12-13T09:52:32.906Z,26.93
2017-12-13T09:55:01.168Z,22.23
2017-12-13T09:57:29.458Z,20.27
2017-12-13T09:59:58.665Z,16.00
2017-12-13T10:02:26.949Z,25.50
2017-12-13T10:04:54.447Z,19.17
2017-12-13T10:07:21.965Z,20.53
2017-12-13T10:09:49.461Z,22.70
2017-12-13T10:12:16.983Z,20.17
2017-12-13T10:14:44.481Z,14.50
2017-12-13T10:17:12.008Z,18.13
2017-12-13T10:19:39.507Z,14.90
2017-12-13T10:22:07.001Z,12.93
2017-12-13T10:24:34.517Z,16.43
2017-12-13T10:27:02.982Z,13.53
2017-12-13T10:29:30.505Z,15.03
2017-12-13T10:31:58.006Z,15.27
2017-12-13T10:34:27.037Z,14.80
2017-12-13T10:36:55.326Z,11.87
2017-12-13T10:39:22.847Z,12.20
2017-12-13T10:41:51.118Z,9.77
2017-12-13T10:44:18.641Z,12.57
2017-12-13T10:46:46.136Z,14.33
2017-12-13T10:49:14.397Z,10.90
2017-12-13T10:51:45.377Z,10.60
2017-12-13T10:54:12.868Z,7.50
2017-12-13T10:56:40.385Z,12.70
2017-12-13T10:59:07.889Z,12.20
2017-12-13T11:01:35.413Z,15.13
2017-12-13T11:04:03.856Z,11.03
2017-12-13T11:06:31.369Z,8.60
2017-12-13T11:08:58.888Z,9.03
2017-12-13T11:11:27.165Z,10.83
2017-12-13T11:13:54.656Z,9.90
2017-12-13T11:16:23.105Z,12.93
2017-12-13T11:18:50.626Z,9.80
2017-12-13T11:21:19.625Z,9.83
2017-12-13T11:23:47.150Z,7.13
2017-12-13T11:26:14.641Z,8.67
2017-12-13T11:28:42.926Z,7.57
2017-12-13T11:31:11.205Z,11.13
2017-12-13T11:33:39.481Z,8.27
2017-12-13T11:36:07.736Z,7.33
2017-12-13T11:38:36.983Z,6.30
2017-12-13T11:41:04.478Z,6.13
2017-12-13T11:43:31.970Z,8.10
2017-12-13T11:45:59.514Z,5.60
2017-12-13T11:48:27.773Z,8.27
2017-12-13T11:50:56.802Z,7.30
2017-12-13T11:53:25.058Z,5.30
2017-12-13T11:55:52.577Z,6.73
2017-12-13T11:58:21.030Z,7.03
2017-12-13T12:00:48.550Z,7.33
2017-12-13T12:03:16.042Z,6.30
2017-12-13T12:05:43.559Z,4.37
2017-12-13T12:08:11.825Z,4.60
2017-12-13T12:10:39.352Z,5.47
2017-12-13T12:13:08.834Z,4.17
2017-12-13T12:15:36.324Z,5.27
2017-12-13T12:18:03.841Z,4.03
2017-12-13T12:20:31.353Z,7.83
2017-12-13T12:22:58.866Z,4.60
2017-12-13T12:25:26.363Z,4.23
2017-12-13T12:27:53.886Z,3.33
2017-12-13T12:30:21.377Z,6.60
2017-12-13T12:32:48.894Z,6.13
2017-12-13T12:35:16.384Z,4.73
2017-12-13T12:37:43.889Z,5.30
2017-12-13T12:40:12.169Z,4.93
2017-12-13T12:42:39.661Z,6.97
2017-12-13T12:45:07.173Z,4.10
2017-12-13T12:47:35.449Z,3.30
2017-12-13T12:50:02.968Z,5.73
2017-12-13T12:52:32.905Z,4.27
2017-12-13T12:55:01.185Z,4.40
2017-12-13T12:57:29.467Z,4.63
2017-12-13T12:59:57.733Z,7.23
2017-12-13T13:02:25.988Z,3.53
2017-12-13T13:04:53.506Z,3.43
2017-12-13T13:07:21.939Z,6.20
2017-12-13T13:09:50.213Z,4.30
2017-12-13T13:12:17.721Z,3.70
2017-12-13T13:14:45.204Z,3.10
2017-12-13T13:17:12.733Z,7.30
2017-12-13T13:19:40.234Z,3.50
2017-12-13T13:22:08.517Z,4.03
2017-12-13T13:24:36.777Z,3.33
2017-12-13T13:27:04.296Z,4.63
2017-12-13T13:29:31.793Z,3.27
2017-12-13T13:32:00.049Z,4.63
2017-12-13T13:34:27.570Z,4.67
2017-12-13T13:36:55.065Z,4.27
2017-12-13T13:39:22.580Z,4.23
2017-12-13T13:41:50.074Z,3.80
2017-12-13T13:44:17.594Z,2.60
2017-12-13T13:46:45.093Z,5.30
2017-12-13T13:49:12.607Z,3.87
2017-12-13T13:51:40.117Z,3.20
2017-12-13T13:54:07.609Z,3.30
2017-12-13T13:56:35.889Z,4.70
2017-12-13T13:59:03.402Z,3.27
2017-12-13T14:01:30.933Z,4.20
2017-12-13T14:03:58.433Z,4.07
2017-12-13T14:06:28.695Z,3.20
2017-12-13T14:08:56.188Z,5.13
2017-12-13T14:11:23.710Z,5.37
2017-12-13T14:13:52.149Z,2.60
2017-12-13T14:16:20.404Z,5.10
2017-12-13T14:18:47.928Z,3.40
2017-12-13T14:21:16.381Z,4.60
2017-12-13T14:23:43.896Z,4.93
2017-12-13T14:26:11.390Z,2.93
2017-12-13T14:28:39.672Z,3.60
2017-12-13T14:31:07.168Z,4.07
2017-12-13T14:33:34.676Z,3.60
2017-12-13T14:36:02.928Z,5.80
2017-12-13T14:38:31.949Z,3.80
2017-12-13T14:40:59.449Z,2.63
2017-12-13T14:43:26.946Z,3.87
2017-12-13T14:45:55.230Z,3.10
2017-12-13T14:48:23.481Z,3.93
2017-12-13T14:50:50.997Z,3.10
2017-12-13T14:53:18.489Z,2.67
2017-12-13T14:55:46.009Z,3.83
2017-12-13T14:58:13.501Z,4.70
2017-12-13T15:00:42.530Z,3.13
2017-12-13T15:03:10.069Z,3.07
2017-12-13T15:05:37.586Z,4.03
2017-12-13T15:08:05.072Z,4.47
2017-12-13T15:10:32.569Z,3.53
2017-12-13T15:13:00.094Z,3.77
2017-12-13T15:15:28.349Z,5.00
2017-12-13T15:17:55.872Z,5.20
2017-12-13T15:20:23.372Z,4.87
2017-12-13T15:22:52.840Z,5.73
2017-12-13T15:25:21.181Z,3.77
2017-12-13T15:27:49.465Z,4.73
2017-12-13T15:30:17.909Z,4.10
2017-12-13T15:32:46.188Z,3.77
2017-12-13T15:35:15.181Z,4.63
2017-12-13T15:37:43.437Z,4.63
2017-12-13T15:40:10.958Z,4.00
2017-12-13T15:42:38.449Z,5.20
2017-12-13T15:45:05.961Z,4.37
2017-12-13T15:47:33.463Z,3.90
2017-12-13T15:50:02.930Z,4.87
2017-12-13T15:52:30.420Z,3.57
2017-12-13T15:54:57.942Z,3.60
2017-12-13T15:57:25.441Z,4.57
2017-12-13T15:59:52.962Z,4.53
2017-12-13T16:02:20.456Z,3.63
2017-12-13T16:04:47.953Z,4.40
2017-12-13T16:07:15.469Z,4.13
2017-12-13T16:09:42.956Z,4.80
2017-12-13T16:12:11.242Z,4.70
2017-12-13T16:14:39.499Z,3.43
2017-12-13T16:17:07.782Z,3.87
2017-12-13T16:19:36.041Z,5.07
2017-12-13T16:22:03.557Z,5.00
2017-12-13T16:24:31.045Z,4.00
2017-12-13T16:26:58.566Z,4.43
2017-12-13T16:29:26.061Z,3.63
2017-12-13T16:31:53.564Z,3.23
2017-12-13T16:34:21.085Z,3.43
2017-12-13T16:36:50.300Z,4.33
2017-12-13T16:39:18.584Z,3.17
2017-12-13T16:41:46.077Z,3.60
2017-12-13T16:44:15.550Z,3.67
2017-12-13T16:46:43.050Z,3.70
2017-12-13T16:49:10.571Z,3.97
2017-12-13T16:51:38.061Z,2.90
2017-12-13T16:54:05.581Z,3.97
2017-12-13T16:56:33.079Z,2.93
2017-12-13T16:59:00.598Z,3.60
2017-12-13T17:01:28.094Z,4.20
2017-12-13T17:03:56.555Z,2.73
2017-12-13T17:06:24.102Z,2.77
2017-12-13T17:08:51.617Z,4.40
2017-12-13T17:11:19.896Z,3.93
2017-12-13T17:13:47.441Z,4.10
2017-12-13T17:16:15.726Z,2.70
2017-12-13T17:18:43.989Z,3.47
2017-12-13T17:21:12.268Z,3.10
2017-12-13T17:23:40.531Z,2.93
2017-12-13T17:26:08.049Z,3.03
2017-12-13T17:28:35.545Z,3.50
2017-12-13T17:31:03.073Z,4.07
2017-12-13T17:33:30.575Z,2.73
2017-12-13T17:35:58.837Z,2.90
2017-12-13T17:38:27.867Z,3.07
2017-12-13T17:40:55.365Z,4.13
2017-12-13T17:43:23.669Z,3.27
2017-12-13T17:45:52.890Z,3.37
2017-12-13T17:48:20.405Z,2.80
2017-12-13T17:50:47.901Z,2.53
2017-12-13T17:53:15.417Z,3.20
2017-12-13T17:55:43.865Z,3.07
2017-12-13T17:58:11.354Z,3.20
2017-12-13T18:00:38.882Z,2.83
2017-12-13T18:03:06.377Z,2.63
2017-12-13T18:05:35.397Z,2.87
2017-12-13T18:08:03.653Z,3.67
2017-12-13T18:10:31.938Z,2.87
2017-12-13T18:13:00.590Z,3.40
2017-12-13T18:15:28.114Z,3.77
2017-12-13T18:17:55.606Z,4.90
2017-12-13T18:20:23.130Z,2.73
2017-12-13T18:22:50.621Z,3.63
2017-12-13T18:25:18.121Z,4.67
2017-12-13T18:27:45.644Z,13.60
2017-12-13T18:30:13.140Z,2.80
2017-12-13T18:32:40.678Z,4.20
2017-12-13T18:35:08.945Z,3.73
2017-12-13T18:37:37.229Z,5.00
2017-12-13T18:40:05.493Z,3.37
2017-12-13T18:42:33.804Z,9.63
2017-12-13T18:45:01.311Z,2.23
2017-12-13T18:47:28.809Z,8.73
2017-12-13T18:49:56.345Z,4.93
2017-12-13T18:52:24.608Z,6.10
2017-12-13T18:54:52.896Z,5.20
2017-12-13T18:57:21.149Z,7.30
2017-12-13T18:59:48.670Z,8.40
2017-12-13T19:02:16.166Z,11.93
2017-12-13T19:04:45.661Z,8.13
2017-12-13T19:07:13.153Z,6.23
2017-12-13T19:09:41.433Z,9.07
2017-12-13T19:12:08.929Z,6.10
2017-12-13T19:14:37.401Z,4.20
2017-12-13T19:17:04.893Z,5.40
2017-12-13T19:19:33.349Z,11.13
2017-12-13T19:22:00.870Z,7.40
2017-12-13T19:24:28.373Z,14.13
2017-12-13T19:26:55.896Z,7.87
2017-12-13T19:29:23.389Z,6.50
2017-12-13T19:31:50.921Z,9.93
2017-12-13T19:34:19.354Z,5.17
2017-12-13T19:36:47.630Z,8.73
2017-12-13T19:39:15.910Z,9.67
2017-12-13T19:41:44.276Z,3.77
2017-12-13T19:44:12.578Z,3.57
2017-12-13T19:46:40.077Z,5.07
2017-12-13T19:49:08.590Z,2.57
2017-12-13T19:51:38.135Z,9.20
2017-12-13T19:54:06.069Z,3.57
2017-12-13T19:56:33.629Z,3.93
2017-12-13T19:59:03.004Z,2.80
2017-12-13T20:01:31.440Z,4.00
2017-12-13T20:03:59.202Z,5.83
2017-12-13T20:06:27.169Z,2.90
2017-12-13T20:08:54.910Z,4.97
2017-12-13T20:11:22.592Z,2.50
2017-12-13T20:13:50.151Z,3.70
2017-12-13T20:16:18.119Z,4.17
2017-12-13T20:18:45.667Z,2.87
2017-12-13T20:21:13.235Z,3.37
2017-12-13T20:23:40.740Z,3.27
2017-12-13T20:26:09.034Z,3.37
2017-12-13T20:28:37.317Z,4.70
2017-12-13T20:31:04.813Z,6.37
2017-12-13T20:33:32.334Z,2.73
2017-12-13T20:36:02.577Z,6.13
2017-12-13T20:38:30.077Z,15.83
2017-12-13T20:40:57.597Z,7.20
2017-12-13T20:43:25.090Z,5.30
2017-12-13T20:45:52.618Z,5.53
2017-12-13T20:48:20.140Z,8.70
2017-12-13T20:50:48.406Z,10.23
2017-12-13T20:53:16.661Z,4.83
2017-12-13T20:55:45.680Z,4.33
2017-12-13T20:58:13.933Z,3.00
2017-12-13T21:00:42.189Z,5.00
2017-12-13T21:03:09.709Z,4.83
2017-12-13T21:05:37.209Z,5.83
2017-12-13T21:08:04.739Z,3.60
2017-12-13T21:10:32.240Z,10.30
2017-12-13T21:13:00.519Z,3.10
2017-12-13T21:15:28.777Z,3.90
2017-12-13T21:17:56.302Z,4.53
2017-12-13T21:20:23.794Z,2.63
2017-12-13T21:22:52.844Z,7.10
2017-12-13T21:25:20.409Z,8.13
2017-12-13T21:27:47.924Z,11.60
2017-12-13T21:30:16.185Z,3.73
2017-12-13T21:32:44.455Z,2.97
2017-12-13T21:35:12.736Z,2.70
2017-12-13T21:37:41.003Z,6.80
2017-12-13T21:40:08.522Z,4.70
2017-12-13T21:42:36.015Z,4.03
2017-12-13T21:45:04.305Z,2.80
2017-12-13T21:47:32.566Z,2.93
2017-12-13T21:50:01.757Z,4.97
2017-12-13T21:52:30.058Z,2.47
2017-12-13T21:54:58.393Z,5.10
2017-12-13T21:57:25.941Z,4.37
2017-12-13T21:59:53.441Z,4.60
2017-12-13T22:02:21.698Z,3.83
2017-12-13T22:04:49.222Z,4.70
2017-12-13T22:07:16.721Z,3.13
2017-12-13T22:09:45.009Z,5.40
2017-12-13T22:12:13.275Z,2.47
2017-12-13T22:14:41.532Z,4.67
2017-12-13T22:17:09.061Z,3.07
2017-12-13T22:19:36.553Z,4.93
2017-12-13T22:22:04.050Z,4.80
2017-12-13T22:24:32.526Z,2.67
2017-12-13T22:27:00.021Z,2.87
2017-12-13T22:29:27.537Z,3.07
2017-12-13T22:31:55.024Z,2.97
2017-12-13T22:34:22.541Z,2.63
2017-12-13T22:36:50.805Z,2.90
2017-12-13T22:39:20.026Z,3.50
2017-12-13T22:41:47.549Z,2.30
2017-12-13T22:44:16.553Z,2.00
2017-12-13T22:46:44.813Z,8.30
2017-12-13T22:49:12.333Z,5.10
2017-12-13T22:51:39.833Z,3.27
2017-12-13T22:54:09.282Z,2.40
2017-12-13T22:56:38.816Z,2.50
2017-12-13T22:59:06.426Z,2.10
2017-12-13T23:01:33.963Z,4.57
2017-12-13T23:04:02.339Z,1.90
2017-12-13T23:06:31.601Z,5.03
2017-12-13T23:08:59.101Z,9.70
2017-12-13T23:11:27.387Z,2.00
2017-12-13T23:13:55.645Z,2.53
2017-12-13T23:16:23.905Z,2.23
2017-12-13T23:18:51.433Z,2.17
2017-12-13T23:21:18.929Z,2.67
2017-12-13T23:23:47.211Z,5.23
2017-12-13T23:26:16.425Z,2.53
2017-12-13T23:28:43.921Z,4.00
2017-12-13T23:31:11.433Z,2.77
2017-12-13T23:33:41.679Z,2.83
2017-12-13T23:36:09.178Z,4.10
2017-12-13T23:38:36.690Z,9.10
2017-12-13T23:41:04.288Z,2.40
2017-12-13T23:43:31.790Z,3.60
2017-12-13T23:45:59.314Z,4.37
2017-12-13T23:48:26.804Z,3.63
2017-12-13T23:50:54.326Z,4.63
2017-12-13T23:53:21.821Z,5.00
2017-12-13T23:55:49.318Z,6.00
2017-12-13T23:58:16.833Z,3.30
